Time,TemperatureF,DewpointF,PressureIn,WindDirection,WindDirectionDegrees,WindSpeedMPH,WindSpeedGustMPH,Humidity,HourlyPrecipIn,Conditions,Clouds,dailyrainin,SoftwareType,DateUTC
2013-11-04 00:00:00,35.1,12.6,0.00,NNW,336,3.0,4.0,39,0.00,,,0.00,Weather View 32 v70,2013-11-04 05:00:00,
2013-11-04 00:01:00,35.1,12.6,0.00,NNW,336,3.0,4.0,39,0.00,,,0.00,Weather View 32 v70,2013-11-04 05:01:00,
2013-11-04 00:15:00,34.5,11.5,0.00,NNW,337,3.0,4.0,38,0.00,,,0.00,Weather View 32 v70,2013-11-04 05:15:00,
2013-11-04 00:30:00,34.5,10.9,0.00,NNW,337,2.0,6.0,37,0.00,,,0.00,Weather View 32 v70,2013-11-04 05:30:00,
2013-11-04 00:45:00,34.3,9.5,0.00,NNW,330,3.0,6.0,35,0.00,,,0.00,Weather View 32 v70,2013-11-04 05:45:00,
2013-11-04 01:00:00,34.3,8.9,0.00,NNW,334,2.0,6.0,34,0.00,,,0.00,Weather View 32 v70,2013-11-04 06:00:00,
2013-11-04 01:15:00,34.3,8.9,0.00,NNW,342,3.0,6.0,34,0.00,,,0.00,Weather View 32 v70,2013-11-04 06:15:00,
2013-11-04 01:30:00,34.0,7.9,0.00,North,353,3.0,6.0,33,0.00,,,0.00,Weather View 32 v70,2013-11-04 06:30:00,
2013-11-04 01:45:00,34.0,9.2,0.00,North,11,0.0,6.0,35,0.00,,,0.00,Weather View 32 v70,2013-11-04 06:45:00,
2013-11-04 02:00:00,34.0,8.5,0.00,North,2,3.0,6.0,34,0.00,,,0.00,Weather View 32 v70,2013-11-04 07:00:00,
2013-11-04 02:15:00,33.8,8.4,0.00,North,353,4.0,6.0,34,0.00,,,0.00,Weather View 32 v70,2013-11-04 07:15:00,
2013-11-04 02:30:00,33.8,8.4,0.00,North,353,3.0,7.0,34,0.00,,,0.00,Weather View 32 v70,2013-11-04 07:30:00,
2013-11-04 02:45:00,33.8,8.4,0.00,North,353,2.0,7.0,34,0.00,,,0.00,Weather View 32 v70,2013-11-04 07:45:00,
2013-11-04 03:00:00,33.6,8.2,0.00,NNW,337,3.0,7.0,34,0.00,,,0.00,Weather View 32 v70,2013-11-04 08:00:00,
2013-11-04 03:15:00,33.4,8.7,0.00,NNW,339,4.0,7.0,35,0.00,,,0.00,Weather View 32 v70,2013-11-04 08:15:00,
2013-11-04 03:30:00,33.3,7.9,0.00,North,353,3.0,8.0,34,0.00,,,0.00,Weather View 32 v70,2013-11-04 08:30:00,
2013-11-04 03:45:00,33.3,8.5,0.00,North,4,3.0,8.0,35,0.00,,,0.00,Weather View 32 v70,2013-11-04 08:45:00,
2013-11-04 04:00:00,33.1,8.4,0.00,North,0,3.0,8.0,35,0.00,,,0.00,Weather View 32 v70,2013-11-04 09:00:00,
2013-11-04 04:15:00,33.1,8.4,0.00,North,353,4.0,8.0,35,0.00,,,0.00,Weather View 32 v70,2013-11-04 09:15:00,
2013-11-04 04:30:00,33.1,9.0,0.00,NNW,341,2.0,6.0,36,0.00,,,0.00,Weather View 32 v70,2013-11-04 09:30:00,
2013-11-04 04:45:00,32.7,8.7,0.00,NNW,345,0.0,6.0,36,0.00,,,0.00,Weather View 32 v70,2013-11-04 09:45:00,
2013-11-04 05:00:00,32.5,9.1,0.00,North,349,3.0,8.0,37,0.00,,,0.00,Weather View 32 v70,2013-11-04 10:00:00,
2013-11-04 05:15:00,32.4,9.0,0.00,North,353,4.0,8.0,37,0.00,,,0.00,Weather View 32 v70,2013-11-04 10:15:00,
2013-11-04 05:30:00,32.5,9.7,0.00,North,350,4.0,8.0,38,0.00,,,0.00,Weather View 32 v70,2013-11-04 10:30:00,
2013-11-04 05:45:00,32.4,9.6,0.00,North,353,3.0,8.0,38,0.00,,,0.00,Weather View 32 v70,2013-11-04 10:45:00,
2013-11-04 06:00:00,32.4,10.1,0.00,North,357,3.0,8.0,39,0.00,,,0.00,Weather View 32 v70,2013-11-04 11:00:00,
2013-11-04 06:05:00,32.4,10.1,0.00,North,357,3.0,8.0,39,0.00,,,0.00,Weather View 32 v70,2013-11-04 11:05:00,
2013-11-04 06:15:00,32.4,10.1,0.00,NNW,344,3.0,5.0,39,0.00,,,0.00,Weather View 32 v70,2013-11-04 11:15:00,
2013-11-04 06:30:00,32.2,10.0,0.00,North,0,3.0,6.0,39,0.00,,,0.00,Weather View 32 v70,2013-11-04 11:30:00,
2013-11-04 06:45:00,32.4,10.1,0.00,NNW,338,4.0,6.0,39,0.00,,,0.00,Weather View 32 v70,2013-11-04 11:45:00,
2013-11-04 07:00:00,32.4,9.6,0.00,North,357,4.0,6.0,38,0.00,,,0.00,Weather View 32 v70,2013-11-04 12:00:00,
2013-11-04 07:05:00,32.4,9.6,0.00,North,357,4.0,6.0,38,0.00,,,0.00,Weather View 32 v70,2013-11-04 12:05:00,
2013-11-04 07:15:00,32.2,10.0,0.00,NNW,337,5.0,6.0,39,0.00,,,0.00,Weather View 32 v70,2013-11-04 12:15:00,
2013-11-04 07:30:00,32.4,10.1,0.00,North,357,0.0,6.0,39,0.00,,,0.00,Weather View 32 v70,2013-11-04 12:30:00,
2013-11-04 07:45:00,32.9,10.0,0.00,North,357,0.0,5.0,38,0.00,,,0.00,Weather View 32 v70,2013-11-04 12:45:00,
2013-11-04 08:00:00,33.6,10.1,0.00,North,1,4.0,5.0,37,0.00,,,0.00,Weather View 32 v70,2013-11-04 13:00:00,
2013-11-04 08:15:00,34.3,8.2,0.00,North,1,0.0,6.0,33,0.00,,,0.00,Weather View 32 v70,2013-11-04 13:15:00,
2013-11-04 08:30:00,35.2,8.3,0.00,NW,318,3.0,8.0,32,0.00,,,0.00,Weather View 32 v70,2013-11-04 13:30:00,
2013-11-04 08:45:00,36.0,8.2,0.00,North,6,0.0,8.0,31,0.00,,,0.00,Weather View 32 v70,2013-11-04 13:45:00,
2013-11-04 09:00:00,37.0,8.4,0.00,NNW,345,5.0,8.0,30,0.00,,,0.00,Weather View 32 v70,2013-11-04 14:00:00,
2013-11-04 09:07:00,37.0,8.4,0.00,NNW,345,5.0,8.0,30,0.00,,,0.00,Weather View 32 v70,2013-11-04 14:07:00,
2013-11-04 09:15:00,38.5,8.9,0.00,WNW,290,5.0,9.0,29,0.00,,,0.00,Weather View 32 v70,2013-11-04 14:15:00,
2013-11-04 09:30:00,39.9,7.8,0.00,NNW,345,8.0,9.0,26,0.00,,,0.00,Weather View 32 v70,2013-11-04 14:30:00,
2013-11-04 09:45:00,41.5,6.4,0.00,NE,39,3.0,9.0,23,0.00,,,0.00,Weather View 32 v70,2013-11-04 14:45:00,
2013-11-04 10:00:00,43.0,7.7,0.00,NNE,14,4.0,9.0,23,0.00,,,0.00,Weather View 32 v70,2013-11-04 15:00:00,
2013-11-04 10:07:00,43.0,7.7,0.00,NNE,14,4.0,9.0,23,0.00,,,0.00,Weather View 32 v70,2013-11-04 15:07:00,
2013-11-04 10:15:00,45.5,6.7,0.00,NE,56,0.0,9.0,20,0.00,,,0.00,Weather View 32 v70,2013-11-04 15:15:00,
2013-11-04 10:30:00,48.0,7.7,0.00,North,0,3.0,8.0,19,0.00,,,0.00,Weather View 32 v70,2013-11-04 15:30:00,
2013-11-04 10:45:00,50.2,9.4,0.00,ENE,69,4.0,8.0,19,0.00,,,0.00,Weather View 32 v70,2013-11-04 15:45:00,
2013-11-04 11:00:00,50.4,9.6,0.00,NE,41,0.0,7.0,19,0.00,,,0.00,Weather View 32 v70,2013-11-04 16:00:00,
2013-11-04 11:08:00,50.4,9.6,0.00,NE,41,0.0,7.0,19,0.00,,,0.00,Weather View 32 v70,2013-11-04 16:08:00,
2013-11-04 11:15:00,51.6,10.6,0.00,North,11,4.0,8.0,19,0.00,,,0.00,Weather View 32 v70,2013-11-04 16:15:00,
2013-11-04 11:30:00,51.1,10.2,0.00,North,0,2.0,8.0,19,0.00,,,0.00,Weather View 32 v70,2013-11-04 16:30:00,
2013-11-04 11:45:00,50.7,9.9,0.00,North,357,4.0,8.0,19,0.00,,,0.00,Weather View 32 v70,2013-11-04 16:45:00,
2013-11-04 12:00:00,50.4,9.6,0.00,NNW,327,4.0,8.0,19,0.00,,,0.00,Weather View 32 v70,2013-11-04 17:00:00,
2013-11-04 12:08:00,50.4,9.6,0.00,NNW,327,4.0,8.0,19,0.00,,,0.00,Weather View 32 v70,2013-11-04 17:08:00,
2013-11-04 12:15:00,50.0,9.3,0.00,ESE,117,5.0,7.0,19,0.00,,,0.00,Weather View 32 v70,2013-11-04 17:15:00,
2013-11-04 12:30:00,48.9,4.6,0.00,NNW,328,6.0,7.0,16,0.00,,,0.00,Weather View 32 v70,2013-11-04 17:30:00,
2013-11-04 12:45:00,47.8,5.1,0.00,WNW,303,0.0,7.0,17,0.00,,,0.00,Weather View 32 v70,2013-11-04 17:45:00,
2013-11-04 13:00:00,47.5,7.2,0.00,NNW,329,3.0,7.0,19,0.00,,,0.00,Weather View 32 v70,2013-11-04 18:00:00,
2013-11-04 13:09:00,47.5,7.2,0.00,NNW,329,3.0,7.0,19,0.00,,,0.00,Weather View 32 v70,2013-11-04 18:09:00,
2013-11-04 13:15:00,47.5,7.2,0.00,North,6,0.0,6.0,19,0.00,,,0.00,Weather View 32 v70,2013-11-04 18:15:00,
2013-11-04 13:30:00,47.8,5.1,0.00,NW,316,4.0,6.0,17,0.00,,,0.00,Weather View 32 v70,2013-11-04 18:30:00,
2013-11-04 13:45:00,47.3,4.6,0.00,East,90,3.0,7.0,17,0.00,,,0.00,Weather View 32 v70,2013-11-04 18:45:00,
2013-11-04 14:00:00,50.2,5.6,0.00,NNW,337,5.0,7.0,16,0.00,,,0.00,Weather View 32 v70,2013-11-04 19:00:00,
2013-11-04 14:09:00,50.2,5.6,0.00,NNW,337,5.0,7.0,16,0.00,,,0.00,Weather View 32 v70,2013-11-04 19:09:00,
2013-11-04 14:15:00,55.9,11.7,0.00,NE,46,3.0,7.0,17,0.00,,,0.00,Weather View 32 v70,2013-11-04 19:15:00,
2013-11-04 14:30:00,55.9,8.9,0.00,NNW,334,0.0,7.0,15,0.00,,,0.00,Weather View 32 v70,2013-11-04 19:30:00,
2013-11-04 14:45:00,51.8,7.0,0.00,WNW,300,0.0,6.0,16,0.00,,,0.00,Weather View 32 v70,2013-11-04 19:45:00,
2013-11-04 15:00:00,48.9,4.6,0.00,East,83,0.0,6.0,16,0.00,,,0.00,Weather View 32 v70,2013-11-04 20:00:00,
2013-11-04 15:15:00,48.0,5.2,0.00,East,99,0.0,5.0,17,0.00,,,0.00,Weather View 32 v70,2013-11-04 20:15:00,
2013-11-04 15:30:00,47.5,4.8,0.00,ENE,57,0.0,4.0,17,0.00,,,0.00,Weather View 32 v70,2013-11-04 20:30:00,
2013-11-04 15:45:00,46.9,4.3,0.00,WSW,243,3.0,4.0,17,0.00,,,0.00,Weather View 32 v70,2013-11-04 20:45:00,
2013-11-04 16:00:00,45.3,3.0,0.00,East,79,2.0,6.0,17,0.00,,,0.00,Weather View 32 v70,2013-11-04 21:00:00,
2013-11-04 16:15:00,45.3,3.0,0.00,NE,52,0.0,6.0,17,0.00,,,0.00,Weather View 32 v70,2013-11-04 21:15:00,
2013-11-04 16:30:00,44.2,3.4,0.00,ENE,66,0.0,6.0,18,0.00,,,0.00,Weather View 32 v70,2013-11-04 21:30:00,
2013-11-04 16:45:00,43.3,4.9,0.00,ENE,66,0.0,6.0,20,0.00,,,0.00,Weather View 32 v70,2013-11-04 21:45:00,
2013-11-04 17:00:00,42.3,5.1,0.00,ENE,66,0.0,4.0,21,0.00,,,0.00,Weather View 32 v70,2013-11-04 22:00:00,
2013-11-04 17:15:00,41.5,4.5,0.00,ENE,66,0.0,0.0,21,0.00,,,0.00,Weather View 32 v70,2013-11-04 22:15:00,
2013-11-04 17:30:00,41.5,4.5,0.00,ENE,66,0.0,0.0,21,0.00,,,0.00,Weather View 32 v70,2013-11-04 22:30:00,
2013-11-04 17:45:00,41.2,4.2,0.00,ENE,66,0.0,0.0,21,0.00,,,0.00,Weather View 32 v70,2013-11-04 22:45:00,
2013-11-04 18:00:00,41.2,6.1,0.00,ENE,66,0.0,0.0,23,0.00,,,0.00,Weather View 32 v70,2013-11-04 23:00:00,
2013-11-04 18:15:00,41.0,6.0,0.00,ENE,66,0.0,0.0,23,0.00,,,0.00,Weather View 32 v70,2013-11-04 23:15:00,
2013-11-04 18:30:00,40.6,5.7,0.00,SE,129,0.0,0.0,23,0.00,,,0.00,Weather View 32 v70,2013-11-04 23:30:00,
2013-11-04 18:45:00,40.3,8.1,0.00,SE,129,0.0,0.0,26,0.00,,,0.00,Weather View 32 v70,2013-11-04 23:45:00,
2013-11-04 19:00:00,39.7,10.0,0.00,SE,129,0.0,0.0,29,0.00,,,0.00,Weather View 32 v70,2013-11-05 00:00:00,
2013-11-04 19:15:00,39.2,10.3,0.00,SE,129,0.0,0.0,30,0.00,,,0.00,Weather View 32 v70,2013-11-05 00:15:00,
2013-11-04 19:30:00,38.7,10.6,0.00,SE,129,0.0,0.0,31,0.00,,,0.00,Weather View 32 v70,2013-11-05 00:30:00,
2013-11-04 19:45:00,38.5,11.1,0.00,SE,129,0.0,0.0,32,0.00,,,0.00,Weather View 32 v70,2013-11-05 00:45:00,
2013-11-04 20:00:00,38.5,11.1,0.00,SE,129,0.0,0.0,32,0.00,,,0.00,Weather View 32 v70,2013-11-05 01:00:00,
2013-11-04 20:15:00,38.5,11.8,0.00,SE,129,0.0,0.0,33,0.00,,,0.00,Weather View 32 v70,2013-11-05 01:15:00,
2013-11-04 20:30:00,38.3,11.7,0.00,SE,129,0.0,0.0,33,0.00,,,0.00,Weather View 32 v70,2013-11-05 01:30:00,
2013-11-04 20:45:00,38.1,11.5,0.00,SE,129,0.0,0.0,33,0.00,,,0.00,Weather View 32 v70,2013-11-05 01:45:00,
2013-11-04 21:00:00,38.1,12.2,0.00,SE,129,0.0,0.0,34,0.00,,,0.00,Weather View 32 v70,2013-11-05 02:00:00,
2013-11-04 21:15:00,38.3,13.0,0.00,SE,129,0.0,0.0,35,0.00,,,0.00,Weather View 32 v70,2013-11-05 02:15:00,
2013-11-04 21:30:00,37.9,12.7,0.00,SE,129,0.0,0.0,35,0.00,,,0.00,Weather View 32 v70,2013-11-05 02:30:00,
2013-11-04 21:45:00,38.1,13.5,0.00,SE,129,0.0,0.0,36,0.00,,,0.00,Weather View 32 v70,2013-11-05 02:45:00,
2013-11-04 22:00:00,38.3,13.7,0.00,SE,129,0.0,0.0,36,0.00,,,0.00,Weather View 32 v70,2013-11-05 03:00:00,
2013-11-04 22:15:00,37.6,13.6,0.00,SE,129,0.0,0.0,37,0.00,,,0.00,Weather View 32 v70,2013-11-05 03:15:00,
2013-11-04 22:30:00,37.2,13.9,0.00,SE,129,0.0,0.0,38,0.00,,,0.00,Weather View 32 v70,2013-11-05 03:30:00,
2013-11-04 22:45:00,37.4,14.7,0.00,SE,129,0.0,0.0,39,0.00,,,0.00,Weather View 32 v70,2013-11-05 03:45:00,
2013-11-04 23:00:00,37.0,14.4,0.00,SE,129,0.0,0.0,39,0.00,,,0.00,Weather View 32 v70,2013-11-05 04:00:00,
2013-11-04 23:15:00,37.0,14.9,0.00,SE,129,0.0,0.0,40,0.00,,,0.00,Weather View 32 v70,2013-11-05 04:15:00,
2013-11-04 23:30:00,36.5,14.4,0.00,SE,129,0.0,0.0,40,0.00,,,0.00,Weather View 32 v70,2013-11-05 04:30:00,
2013-11-04 23:45:00,36.3,14.8,0.00,SE,129,0.0,0.0,41,0.00,,,0.00,Weather View 32 v70,2013-11-05 04:45:00,